createdAt,value
2018-05-29T00:01:28.317Z,97753.37
2018-05-29T00:04:04.195Z,97753.88
2018-05-29T00:06:40.716Z,97753.36
2018-05-29T00:09:15.801Z,97753.28
2018-05-29T00:11:50.633Z,97752.64
2018-05-29T00:14:25.261Z,97751.59
2018-05-29T00:17:01.383Z,97743.01
2018-05-29T00:19:39.756Z,97746.59
2018-05-29T00:22:13.985Z,97742.54
2018-05-29T00:24:48.320Z,97738.94
2018-05-29T00:27:23.441Z,97733.59
2018-05-29T00:30:00.237Z,97732.78
2018-05-29T00:32:28.984Z,97731.85
2018-05-29T00:34:57.764Z,97725.29
2018-05-29T00:37:26.567Z,97730.05
2018-05-29T00:39:55.330Z,97727.53
2018-05-29T00:42:24.868Z,97722.43
2018-05-29T00:44:53.637Z,97715.20
2018-05-29T00:47:22.388Z,97703.04
2018-05-29T00:49:52.074Z,97699.40
2018-05-29T00:52:22.004Z,97697.94
2018-05-29T00:55:02.496Z,97701.25
2018-05-29T00:57:31.291Z,97694.34
2018-05-29T01:00:00.047Z,97695.73
2018-05-29T01:02:29.697Z,97688.10
2018-05-29T01:04:59.236Z,97684.69
2018-05-29T01:07:27.985Z,97679.69
2018-05-29T01:09:56.754Z,97681.27
2018-05-29T01:12:25.536Z,97686.66
2018-05-29T01:14:54.294Z,97688.91
2018-05-29T01:17:23.184Z,97685.12
2018-05-29T01:19:52.032Z,97683.47
2018-05-29T01:22:20.897Z,97690.55
2018-05-29T01:24:49.950Z,97692.05
2018-05-29T01:27:18.736Z,97692.61
2018-05-29T01:29:47.559Z,97690.93
2018-05-29T01:32:16.402Z,97689.97
2018-05-29T01:34:45.986Z,97686.50
2018-05-29T01:37:14.808Z,97680.30
2018-05-29T01:39:43.593Z,97685.52
2018-05-29T01:42:12.742Z,97687.80
2018-05-29T01:44:43.410Z,97689.58
2018-05-29T01:47:13.167Z,97695.38
2018-05-29T01:49:42.872Z,97693.17
2018-05-29T01:52:11.644Z,97700.94
2018-05-29T01:54:40.431Z,97700.17
2018-05-29T01:57:09.198Z,97699.70
2018-05-29T01:59:39.097Z,97708.33
2018-05-29T02:02:07.905Z,97701.61
2018-05-29T02:04:37.479Z,97706.22
2018-05-29T02:07:06.949Z,97704.97
2018-05-29T02:09:35.774Z,97705.23
2018-05-29T02:12:04.522Z,97707.86
2018-05-29T02:14:33.285Z,97707.83
2018-05-29T02:17:02.400Z,97719.73
2018-05-29T02:19:31.145Z,97705.52
2018-05-29T02:21:59.930Z,97705.28
2018-05-29T02:24:28.712Z,97704.69
2018-05-29T02:26:57.459Z,97708.36
2018-05-29T02:29:26.209Z,97714.70
2018-05-29T02:31:55.118Z,97714.84
2018-05-29T02:34:23.910Z,97712.34
2018-05-29T02:36:53.446Z,97710.63
2018-05-29T02:39:22.224Z,97710.25
2018-05-29T02:41:50.976Z,97708.87
2018-05-29T02:44:19.768Z,97707.34
2018-05-29T02:46:48.517Z,97700.34
2018-05-29T02:49:17.273Z,97700.44
2018-05-29T02:51:46.043Z,97699.33
2018-05-29T02:54:14.781Z,97706.36
2018-05-29T02:56:44.334Z,97705.31
2018-05-29T02:59:14.965Z,97712.78
2018-05-29T03:01:45.638Z,97706.73
2018-05-29T03:04:14.444Z,97708.70
2018-05-29T03:06:43.305Z,97709.33
2018-05-29T03:09:12.244Z,97717.06
2018-05-29T03:11:41.470Z,97710.36
2018-05-29T03:14:10.226Z,97707.98
2018-05-29T03:16:38.967Z,97705.06
2018-05-29T03:19:07.736Z,97705.35
2018-05-29T03:21:36.517Z,97701.03
2018-05-29T03:24:13.680Z,97711.24
2018-05-29T03:26:48.204Z,97704.24
2018-05-29T03:29:22.671Z,97707.80
2018-05-29T03:31:55.779Z,97713.25
2018-05-29T03:34:29.171Z,97711.87
2018-05-29T03:39:49.659Z,97708.76
2018-05-29T03:42:22.819Z,97713.28
2018-05-29T03:44:54.659Z,97705.14
2018-05-29T03:47:29.194Z,97703.67
2018-05-29T03:50:06.084Z,97693.31
2018-05-29T03:52:39.048Z,97689.19
2018-05-29T03:55:10.471Z,97692.78
2018-05-29T03:57:43.211Z,97699.56
2018-05-29T04:00:17.909Z,97692.73
2018-05-29T04:02:48.590Z,97693.30
2018-05-29T04:05:21.519Z,97690.36
2018-05-29T04:07:57.039Z,97691.05
2018-05-29T04:10:30.517Z,97687.83
2018-05-29T04:13:03.855Z,97693.56
2018-05-29T04:15:36.265Z,97695.79
2018-05-29T04:18:14.284Z,97703.48
2018-05-29T04:20:52.918Z,97697.29
2018-05-29T04:23:23.993Z,97704.08
2018-05-29T04:25:58.521Z,97703.81
2018-05-29T04:28:34.682Z,97700.73
2018-05-29T04:31:10.628Z,97697.86
2018-05-29T04:33:42.547Z,97703.14
2018-05-29T04:36:17.302Z,97699.33
2018-05-29T04:38:51.395Z,97703.34
2018-05-29T04:41:28.630Z,97702.23
2018-05-29T04:44:05.185Z,97697.59
2018-05-29T04:46:38.703Z,97696.92
2018-05-29T04:49:16.385Z,97696.01
2018-05-29T04:51:53.252Z,97696.45
2018-05-29T04:54:25.705Z,97700.22
2018-05-29T04:56:57.296Z,97692.29
2018-05-29T04:59:34.013Z,97694.55
2018-05-29T05:02:07.212Z,97692.99
2018-05-29T05:04:45.227Z,97703.14
2018-05-29T05:07:23.244Z,97702.36
2018-05-29T05:10:00.394Z,97695.83
2018-05-29T05:12:37.614Z,97698.38
2018-05-29T05:15:13.049Z,97695.67
2018-05-29T05:17:47.229Z,97693.77
2018-05-29T05:20:19.971Z,97695.48
2018-05-29T05:22:54.063Z,97694.58
2018-05-29T05:25:27.384Z,97696.29
2018-05-29T05:28:03.287Z,97693.25
2018-05-29T05:30:41.617Z,97697.99
2018-05-29T05:33:18.864Z,97695.20
2018-05-29T05:35:53.823Z,97690.50
2018-05-29T05:38:33.167Z,97693.02
2018-05-29T05:41:05.993Z,97689.19
2018-05-29T05:43:40.842Z,97692.74
2018-05-29T05:46:17.424Z,97697.44
2018-05-29T05:48:54.190Z,97689.45
2018-05-29T05:51:26.879Z,97684.33
2018-05-29T05:54:06.558Z,97687.31
2018-05-29T05:56:45.165Z,97689.73
2018-05-29T05:59:23.331Z,97688.88
2018-05-29T06:01:57.266Z,97686.75
2018-05-29T06:04:30.266Z,97686.99
2018-05-29T06:07:03.009Z,97692.21
2018-05-29T06:09:44.677Z,97693.73
2018-05-29T06:12:20.054Z,97691.34
2018-05-29T06:14:53.690Z,97691.87
2018-05-29T06:17:27.111Z,97690.45
2018-05-29T06:20:04.334Z,97692.48
2018-05-29T06:22:40.020Z,97692.66
2018-05-29T06:25:12.321Z,97693.66
2018-05-29T06:27:44.971Z,97693.89
2018-05-29T06:30:20.550Z,97696.95
2018-05-29T06:32:59.406Z,97688.23
2018-05-29T06:35:31.410Z,97689.84
2018-05-29T06:38:05.065Z,97699.08
2018-05-29T06:40:39.891Z,97698.94
2018-05-29T06:43:13.811Z,97695.52
2018-05-29T06:45:46.303Z,97698.22
2018-05-29T06:48:19.213Z,97696.01
2018-05-29T06:50:57.837Z,97702.84
2018-05-29T06:53:28.726Z,97700.70
2018-05-29T06:56:08.645Z,97698.27
2018-05-29T06:58:44.147Z,97698.68
2018-05-29T07:01:18.565Z,97684.30
2018-05-29T07:03:52.967Z,97685.23
2018-05-29T07:06:27.269Z,97680.53
2018-05-29T07:11:42.001Z,97687.27
2018-05-29T07:14:14.448Z,97688.88
2018-05-29T07:16:49.018Z,97689.64
2018-05-29T07:19:23.202Z,97688.61
2018-05-29T07:21:59.890Z,97692.45
2018-05-29T07:24:37.025Z,97693.95
2018-05-29T07:27:14.058Z,97697.61
2018-05-29T07:29:55.384Z,97693.96
2018-05-29T07:32:33.938Z,97695.81
2018-05-29T07:35:09.212Z,97691.33
2018-05-29T07:37:44.141Z,97691.33
2018-05-29T07:40:25.127Z,97690.17
2018-05-29T07:45:38.220Z,97692.88
2018-05-29T07:48:16.570Z,97685.03
2018-05-29T07:50:48.059Z,97684.73
2018-05-29T07:53:23.366Z,97673.11
2018-05-29T07:55:59.834Z,97677.69
2018-05-29T07:58:34.236Z,97670.50
2018-05-29T08:01:10.692Z,97668.34
2018-05-29T08:03:49.407Z,97672.14
2018-05-29T08:06:23.865Z,97670.09
2018-05-29T08:09:00.420Z,97662.84
2018-05-29T08:11:36.271Z,97663.53
2018-05-29T08:14:13.836Z,97661.45
2018-05-29T08:16:51.923Z,97668.02
2018-05-29T08:19:27.847Z,97658.80
2018-05-29T08:22:02.081Z,97664.62
2018-05-29T08:24:37.626Z,97657.99
2018-05-29T08:27:15.500Z,97655.50
2018-05-29T08:29:55.885Z,97657.21
2018-05-29T08:32:32.790Z,97655.34
2018-05-29T08:35:11.083Z,97663.16
2018-05-29T08:37:46.561Z,97659.02
2018-05-29T08:40:21.363Z,97655.91
2018-05-29T08:42:59.923Z,97655.33
2018-05-29T08:45:34.868Z,97652.94
2018-05-29T08:48:10.812Z,97651.08
2018-05-29T08:50:49.621Z,97640.36
2018-05-29T08:53:21.771Z,97646.70
2018-05-29T08:56:00.481Z,97641.86
2018-05-29T08:58:39.617Z,97639.29
2018-05-29T09:01:15.800Z,97637.38
2018-05-29T09:03:52.271Z,97630.86
2018-05-29T09:06:26.878Z,97633.58
2018-05-29T09:09:04.907Z,97631.36
2018-05-29T09:11:38.751Z,97621.43
2018-05-29T09:14:12.577Z,97626.30
2018-05-29T09:19:26.837Z,97628.65
2018-05-29T09:22:01.365Z,97624.76
2018-05-29T09:24:38.583Z,97620.42
2018-05-29T09:27:15.211Z,97629.33
2018-05-29T09:32:35.832Z,97634.11
2018-05-29T09:35:11.057Z,97627.33
2018-05-29T09:37:45.145Z,97627.92
2018-05-29T09:40:17.767Z,97616.67
2018-05-29T09:42:52.600Z,97617.88
2018-05-29T09:45:30.723Z,97615.83
2018-05-29T09:48:10.353Z,97618.65
2018-05-29T09:50:45.663Z,97617.53
2018-05-29T09:53:22.163Z,97613.92
2018-05-29T09:58:34.843Z,97615.81
2018-05-29T10:01:11.656Z,97611.72
2018-05-29T10:03:43.527Z,97614.22
2018-05-29T10:06:16.607Z,97612.69
2018-05-29T10:08:50.403Z,97606.41
2018-05-29T10:11:26.983Z,97597.05
2018-05-29T10:14:00.766Z,97590.70
2018-05-29T10:16:35.839Z,97583.77
2018-05-29T10:19:11.632Z,97587.86
2018-05-29T10:21:47.467Z,97584.39
2018-05-29T10:24:22.742Z,97588.39
2018-05-29T10:26:59.565Z,97579.23
2018-05-29T10:29:34.941Z,97587.69
2018-05-29T10:32:08.820Z,97586.05
2018-05-29T10:34:44.411Z,97591.73
2018-05-29T10:37:16.492Z,97587.94
2018-05-29T10:39:51.846Z,97587.34
2018-05-29T10:42:26.933Z,97577.89
2018-05-29T10:45:02.646Z,97570.52
2018-05-29T10:47:38.098Z,97579.64
2018-05-29T10:50:16.579Z,97568.59
2018-05-29T10:53:03.343Z,97558.64
2018-05-29T10:55:38.613Z,97552.80
2018-05-29T10:58:11.020Z,97559.09
2018-05-29T11:00:48.296Z,97559.24
2018-05-29T11:03:22.117Z,97561.88
2018-05-29T11:05:58.222Z,97568.47
2018-05-29T11:08:32.339Z,97566.69
2018-05-29T11:11:05.085Z,97569.45
2018-05-29T11:13:40.693Z,97567.74
2018-05-29T11:16:18.592Z,97563.27
2018-05-29T11:18:52.037Z,97554.31
2018-05-29T11:21:29.164Z,97543.77
2018-05-29T11:24:01.870Z,97544.33
2018-05-29T11:26:38.738Z,97544.55
2018-05-29T11:29:17.995Z,97540.34
2018-05-29T11:31:58.879Z,97535.11
2018-05-29T11:34:36.356Z,97529.31
2018-05-29T11:37:15.739Z,97533.34
2018-05-29T11:39:56.621Z,97532.44
2018-05-29T11:42:37.562Z,97523.10
2018-05-29T11:45:11.952Z,97521.17
2018-05-29T11:47:45.340Z,97522.82
2018-05-29T11:50:16.785Z,97522.95
2018-05-29T11:52:53.283Z,97527.48
2018-05-29T11:55:35.384Z,97531.08
2018-05-29T11:58:14.914Z,97532.05
2018-05-29T12:00:47.470Z,97533.75
2018-05-29T12:03:33.235Z,97540.66
2018-05-29T12:06:07.287Z,97542.97
2018-05-29T12:08:39.677Z,97545.05
2018-05-29T12:11:13.143Z,97546.59
2018-05-29T12:13:50.605Z,97549.63
2018-05-29T12:16:28.517Z,97551.68
2018-05-29T12:19:03.651Z,97550.73
2018-05-29T12:21:36.273Z,97548.91
2018-05-29T12:24:14.291Z,97546.08
2018-05-29T12:29:32.060Z,97546.63
2018-05-29T12:34:47.120Z,97561.69
2018-05-29T12:37:20.775Z,97568.42
2018-05-29T12:39:56.114Z,97569.34
2018-05-29T12:42:28.445Z,97573.55
2018-05-29T12:45:04.199Z,97568.95
2018-05-29T12:47:39.528Z,97563.59
2018-05-29T12:50:17.661Z,97562.41
2018-05-29T12:52:53.532Z,97557.40
2018-05-29T12:55:29.900Z,97555.30
2018-05-29T12:58:05.370Z,97554.25
2018-05-29T13:00:45.226Z,97550.96
2018-05-29T13:03:21.679Z,97553.20
2018-05-29T13:05:55.082Z,97557.31
2018-05-29T13:08:31.633Z,97553.84
2018-05-29T13:11:06.769Z,97558.33
2018-05-29T13:13:45.572Z,97553.61
2018-05-29T13:16:23.638Z,97556.60
2018-05-29T13:19:00.439Z,97564.13
2018-05-29T13:21:36.229Z,97564.05
2018-05-29T13:24:15.073Z,97566.89
2018-05-29T13:26:51.216Z,97564.95
2018-05-29T13:29:25.998Z,97565.81
2018-05-29T13:32:07.542Z,97566.42
2018-05-29T13:34:42.670Z,97564.89
2018-05-29T13:37:18.541Z,97564.25
2018-05-29T13:39:53.386Z,97552.10
2018-05-29T13:42:30.439Z,97557.98
2018-05-29T13:45:10.042Z,97558.27
2018-05-29T13:50:29.985Z,97553.67
2018-05-29T13:53:05.410Z,97556.30
2018-05-29T13:55:41.002Z,97557.84
2018-05-29T13:58:20.484Z,97556.05
2018-05-29T14:00:54.671Z,97551.54
2018-05-29T14:03:34.798Z,97552.50
2018-05-29T14:06:10.411Z,97552.69
2018-05-29T14:08:46.881Z,97553.59
2018-05-29T14:11:21.083Z,97557.59
2018-05-29T14:13:57.953Z,97554.62
2018-05-29T14:16:41.999Z,97552.78
2018-05-29T14:19:14.946Z,97551.33
2018-05-29T14:21:49.541Z,97549.06
2018-05-29T14:24:28.567Z,97549.30
2018-05-29T14:27:05.620Z,97554.14
2018-05-29T14:29:39.620Z,97554.42
2018-05-29T14:32:18.135Z,97559.42
2018-05-29T14:34:55.464Z,97556.98
2018-05-29T14:37:28.524Z,97547.27
2018-05-29T14:40:04.719Z,97548.17
2018-05-29T14:42:38.814Z,97542.73
2018-05-29T14:45:16.657Z,97550.22
2018-05-29T14:47:50.949Z,97544.70
2018-05-29T14:53:08.334Z,97558.17
2018-05-29T14:55:44.181Z,97557.59
2018-05-29T14:58:18.501Z,97562.61
2018-05-29T15:00:52.724Z,97561.64
2018-05-29T15:03:22.782Z,97558.23
2018-05-29T15:05:58.560Z,97555.39
2018-05-29T15:08:30.946Z,97567.42
2018-05-29T15:11:11.626Z,97573.78
2018-05-29T15:13:51.543Z,97559.73
2018-05-29T15:16:24.943Z,97557.77
2018-05-29T15:19:01.594Z,97562.63
2018-05-29T15:21:43.188Z,97558.68
2018-05-29T15:24:23.449Z,97542.40
2018-05-29T15:27:01.128Z,97546.67
2018-05-29T15:29:39.044Z,97538.84
2018-05-29T15:32:13.044Z,97541.03
2018-05-29T15:34:46.559Z,97534.09
2018-05-29T15:37:18.396Z,97535.91
2018-05-29T15:39:54.328Z,97532.33
2018-05-29T15:42:29.651Z,97528.55
2018-05-29T15:45:06.404Z,97529.34
2018-05-29T15:47:38.629Z,97522.49
2018-05-29T15:50:12.845Z,97524.61
2018-05-29T15:52:52.991Z,97523.16
2018-05-29T15:55:34.269Z,97520.08
2018-05-29T15:58:09.390Z,97521.02
2018-05-29T16:00:44.354Z,97515.16
2018-05-29T16:03:17.277Z,97518.28
2018-05-29T16:05:52.103Z,97515.23
2018-05-29T16:08:27.790Z,97505.75
2018-05-29T16:11:02.358Z,97502.00
2018-05-29T16:13:39.478Z,97505.52
2018-05-29T16:16:10.710Z,97500.17
2018-05-29T16:18:44.862Z,97508.56
2018-05-29T16:21:24.459Z,97506.05
2018-05-29T16:24:05.287Z,97507.31
2018-05-29T16:29:15.229Z,97496.80
2018-05-29T16:31:50.046Z,97504.27
2018-05-29T16:34:27.306Z,97506.84
2018-05-29T16:37:02.328Z,97506.59
2018-05-29T16:39:39.782Z,97506.23
2018-05-29T16:42:13.223Z,97510.05
2018-05-29T16:44:50.681Z,97510.57
2018-05-29T16:47:25.292Z,97509.31
2018-05-29T16:49:59.710Z,97511.53
2018-05-29T16:52:36.586Z,97510.45
2018-05-29T16:55:08.595Z,97504.28
2018-05-29T16:57:40.455Z,97509.55
2018-05-29T17:00:14.543Z,97507.70
2018-05-29T17:02:48.286Z,97512.27
2018-05-29T17:05:20.898Z,97504.98
2018-05-29T17:07:55.723Z,97509.02
2018-05-29T17:10:33.271Z,97500.97
2018-05-29T17:13:08.125Z,97502.94
2018-05-29T17:15:44.645Z,97507.42
2018-05-29T17:18:21.212Z,97512.48
2018-05-29T17:20:57.816Z,97511.00
2018-05-29T17:23:30.689Z,97527.55
2018-05-29T17:26:03.792Z,97548.67
2018-05-29T17:28:41.138Z,97555.77
2018-05-29T17:31:19.516Z,97565.20
2018-05-29T17:33:55.835Z,97556.86
2018-05-29T17:36:32.314Z,97560.50
2018-05-29T17:39:07.262Z,97578.09
2018-05-29T17:41:45.162Z,97608.14
2018-05-29T17:44:17.601Z,97607.86
2018-05-29T17:46:54.282Z,97617.05
2018-05-29T17:49:31.307Z,97618.48
2018-05-29T17:52:08.500Z,97608.31
2018-05-29T17:54:48.615Z,97598.42
2018-05-29T17:57:22.207Z,97590.98
2018-05-29T17:59:55.182Z,97585.53
2018-05-29T18:02:33.974Z,97579.00
2018-05-29T18:05:06.804Z,97566.05
2018-05-29T18:07:41.556Z,97556.45
2018-05-29T18:12:52.448Z,97539.76
2018-05-29T18:15:24.891Z,97532.52
2018-05-29T18:17:57.424Z,97542.06
2018-05-29T18:23:09.622Z,97541.84
2018-05-29T18:25:44.755Z,97540.09
2018-05-29T18:28:16.535Z,97529.27
2018-05-29T18:30:52.392Z,97529.31
2018-05-29T18:33:26.706Z,97528.19
2018-05-29T18:36:03.304Z,97527.64
2018-05-29T18:38:36.410Z,97524.66
2018-05-29T18:41:11.828Z,97523.27
2018-05-29T18:43:43.047Z,97514.69
2018-05-29T18:46:20.351Z,97509.01
2018-05-29T18:49:10.877Z,97492.11
2018-05-29T18:51:48.621Z,97488.91
2018-05-29T18:54:26.783Z,97492.66
2018-05-29T18:57:03.230Z,97495.99
2018-05-29T18:59:45.492Z,97500.12
2018-05-29T19:02:20.656Z,97499.71
2018-05-29T19:04:53.142Z,97499.77
2018-05-29T19:07:31.601Z,97503.53
2018-05-29T19:12:44.945Z,97511.55
2018-05-29T19:15:25.395Z,97518.54
2018-05-29T19:17:59.862Z,97523.94
2018-05-29T19:20:36.929Z,97527.34
2018-05-29T19:23:13.693Z,97537.27
2018-05-29T19:25:48.615Z,97548.19
2018-05-29T19:28:21.160Z,97551.27
2018-05-29T19:31:02.708Z,97562.84
2018-05-29T19:33:34.864Z,97560.64
2018-05-29T19:36:14.221Z,97563.45
2018-05-29T19:38:47.857Z,97568.81
2018-05-29T19:41:23.876Z,97572.42
2018-05-29T19:43:58.082Z,97563.88
2018-05-29T19:46:30.507Z,97565.89
2018-05-29T19:49:03.633Z,97569.43
2018-05-29T19:51:42.482Z,97570.12
2018-05-29T19:54:19.075Z,97560.75
2018-05-29T19:56:55.173Z,97560.43
2018-05-29T19:59:29.051Z,97566.66
2018-05-29T20:02:05.653Z,97562.82
2018-05-29T20:04:37.632Z,97560.48
2018-05-29T20:07:12.673Z,97555.77
2018-05-29T20:09:46.762Z,97558.02
2018-05-29T20:12:23.687Z,97558.57
2018-05-29T20:14:58.310Z,97556.28
2018-05-29T20:17:38.021Z,97562.51
2018-05-29T20:23:08.362Z,97559.65
2018-05-29T20:25:41.344Z,97563.23
2018-05-29T20:28:16.684Z,97564.03
2018-05-29T20:30:53.217Z,97564.36
2018-05-29T20:33:29.123Z,97568.97
2018-05-29T20:36:01.743Z,97573.34
2018-05-29T20:38:35.440Z,97579.41
2018-05-29T20:41:08.376Z,97584.77
2018-05-29T20:43:43.721Z,97589.84
2018-05-29T20:46:18.828Z,97594.13
2018-05-29T20:48:54.516Z,97611.58
2018-05-29T20:51:27.220Z,97612.46
2018-05-29T20:54:02.675Z,97624.99
2018-05-29T20:56:38.581Z,97625.44
2018-05-29T20:59:14.892Z,97639.72
2018-05-29T21:01:52.574Z,97643.73
2018-05-29T21:04:28.953Z,97636.42
2018-05-29T21:07:03.443Z,97631.34
2018-05-29T21:09:37.720Z,97630.51
2018-05-29T21:12:13.597Z,97627.30
2018-05-29T21:14:53.549Z,97624.69
2018-05-29T21:17:25.821Z,97615.49
2018-05-29T21:20:03.890Z,97620.73
2018-05-29T21:22:37.411Z,97618.92
2018-05-29T21:25:10.845Z,97621.81
2018-05-29T21:27:45.962Z,97618.23
2018-05-29T21:30:22.860Z,97621.38
2018-05-29T21:32:59.210Z,97621.64
2018-05-29T21:35:32.008Z,97617.63
2018-05-29T21:38:08.401Z,97612.72
2018-05-29T21:40:45.480Z,97607.06
2018-05-29T21:43:18.354Z,97609.16
2018-05-29T21:45:52.291Z,97606.86
2018-05-29T21:48:28.531Z,97609.91
2018-05-29T21:51:09.323Z,97608.47
2018-05-29T21:53:46.108Z,97610.51
2018-05-29T21:59:05.438Z,97604.38
2018-05-29T22:01:41.471Z,97596.14
2018-05-29T22:04:16.524Z,97597.84
2018-05-29T22:06:58.358Z,97596.80
2018-05-29T22:09:31.075Z,97596.80
2018-05-29T22:12:07.128Z,97591.44
2018-05-29T22:14:39.377Z,97583.01
2018-05-29T22:17:15.006Z,97582.59
2018-05-29T22:19:54.381Z,97588.53
2018-05-29T22:22:32.294Z,97583.39
2018-05-29T22:25:10.394Z,97581.39
2018-05-29T22:27:44.676Z,97575.34
2018-05-29T22:30:20.603Z,97577.75
2018-05-29T22:32:54.548Z,97573.17
2018-05-29T22:35:33.371Z,97565.61
2018-05-29T22:38:05.825Z,97564.50
2018-05-29T22:40:39.660Z,97566.16
2018-05-29T22:43:23.149Z,97560.84
2018-05-29T22:46:03.713Z,97559.39
2018-05-29T22:48:40.675Z,97551.49
2018-05-29T22:51:15.515Z,97543.20
2018-05-29T22:53:50.046Z,97537.57
2018-05-29T22:56:33.019Z,97534.50
2018-05-29T22:59:09.140Z,97530.95
2018-05-29T23:01:43.674Z,97535.20
2018-05-29T23:04:17.505Z,97529.05
2018-05-29T23:06:51.382Z,97530.45
2018-05-29T23:09:29.996Z,97515.39
2018-05-29T23:12:05.951Z,97517.66
2018-05-29T23:14:43.419Z,97526.94
2018-05-29T23:17:21.380Z,97528.80
2018-05-29T23:19:55.681Z,97522.29
2018-05-29T23:22:33.909Z,97527.84
2018-05-29T23:25:08.508Z,97526.98
2018-05-29T23:27:44.342Z,97528.34
2018-05-29T23:30:18.054Z,97518.94
2018-05-29T23:32:53.469Z,97512.08
2018-05-29T23:35:31.642Z,97509.31
2018-05-29T23:38:09.057Z,97514.42
2018-05-29T23:40:44.894Z,97515.22
2018-05-29T23:43:22.130Z,97510.55
2018-05-29T23:46:01.789Z,97504.55
2018-05-29T23:51:12.831Z,97506.46
2018-05-29T23:53:50.498Z,97502.45
2018-05-29T23:56:29.385Z,97497.44
2018-05-29T23:59:04.421Z,97491.17
